Time;durP1;ratioP1;P1;durP2;ratioP2;P2;SDS_P1;SDS_P2;PMS_P1;PMS_P2;Temp;Humidity;BMP_temperature;BMP_pressure;BME280_temperature;BME280_humidity;BME280_pressure;Samples;Min_cycle;Max_cycle;Signal;HPM_P1;HPM_P2
2021/07/12 00:01:36;;;;;;;14.93;11.60;;;20.60;99.90;;;;;;4975912;28;20246;-70
2021/07/12 00:04:02;;;;;;;15.17;12.27;;;20.70;99.90;;;;;;4975517;28;20780;-70
2021/07/12 00:06:28;;;;;;;12.57;11.27;;;20.60;99.90;;;;;;4975947;28;20426;-70
2021/07/12 00:08:53;;;;;;;12.37;11.17;;;20.50;99.90;;;;;;4958153;28;20584;-70
2021/07/12 00:11:19;;;;;;;11.97;10.80;;;20.40;99.90;;;;;;4975404;28;20575;-70
2021/07/12 00:13:44;;;;;;;12.13;10.90;;;20.40;99.90;;;;;;4958188;28;20230;-70
2021/07/12 00:16:10;;;;;;;13.00;11.90;;;20.40;99.90;;;;;;4975536;28;20195;-70
2021/07/12 00:18:36;;;;;;;14.80;12.67;;;20.40;99.90;;;;;;4975191;28;20179;-70
2021/07/12 00:21:02;;;;;;;13.07;11.67;;;20.50;99.90;;;;;;4975375;28;20494;-70
2021/07/12 00:23:27;;;;;;;12.80;11.37;;;20.40;99.90;;;;;;4958820;28;20187;-70
2021/07/12 00:25:53;;;;;;;12.63;11.50;;;20.30;99.90;;;;;;4975298;28;20441;-70
2021/07/12 00:28:19;;;;;;;14.33;12.90;;;20.30;99.90;;;;;;4974986;28;20198;-70
2021/07/12 00:30:44;;;;;;;13.73;12.43;;;20.30;99.90;;;;;;4975338;28;20187;-70
2021/07/12 00:33:10;;;;;;;13.13;11.37;;;20.30;99.90;;;;;;4958047;28;20222;-71
2021/07/12 00:35:35;;;;;;;13.23;11.63;;;20.30;99.90;;;;;;4958115;28;20246;-70
2021/07/12 00:38:01;;;;;;;14.07;12.77;;;20.30;99.90;;;;;;4974994;28;20180;-70
2021/07/12 00:40:28;;;;;;;12.13;11.03;;;20.30;99.90;;;;;;4975017;28;20788;-70
2021/07/12 00:42:54;;;;;;;12.40;11.20;;;20.30;99.90;;;;;;4974936;28;20195;-70
2021/07/12 00:45:25;;;;;;;12.73;11.43;;;20.30;99.90;;;;;;4975144;28;20454;-70
2021/07/12 00:47:53;;;;;;;13.30;12.00;;;20.60;99.90;;;;;;4975016;28;20496;-70
2021/07/12 00:50:19;;;;;;;15.43;14.03;;;20.60;99.90;;;;;;4974831;28;20806;-70
2021/07/12 00:52:46;;;;;;;17.73;13.17;;;20.60;99.90;;;;;;4957749;28;20958;-70
2021/07/12 00:55:19;;;;;;;13.80;12.30;;;20.60;99.90;;;;;;4957807;28;20430;-70
2021/07/12 00:57:46;;;;;;;12.60;11.50;;;20.50;99.90;;;;;;4957669;28;20827;-70
2021/07/12 01:00:13;;;;;;;12.47;11.43;;;20.30;99.90;;;;;;4974709;28;20446;-70
2021/07/12 01:02:39;;;;;;;12.93;11.70;;;20.40;99.90;;;;;;4961626;28;20766;-70
2021/07/12 01:05:07;;;;;;;12.23;11.03;;;20.50;99.90;;;;;;4978918;28;20430;-70
2021/07/12 01:07:33;;;;;;;13.20;11.80;;;20.60;99.90;;;;;;4978687;28;20426;-70
2021/07/12 01:09:59;;;;;;;13.57;12.37;;;20.60;99.90;;;;;;4978803;28;20994;-70
2021/07/12 01:12:38;;;;;;;13.83;12.53;;;20.60;99.90;;;;;;4978736;28;20900;-70
2021/07/12 01:15:04;;;;;;;13.53;12.20;;;20.60;99.90;;;;;;4978791;28;20859;-70
2021/07/12 01:17:41;;;;;;;13.17;12.03;;;20.60;99.90;;;;;;4978497;28;20418;-70
2021/07/12 01:21:02;;;;;;;14.03;12.63;;;20.50;99.90;;;;;;4978601;28;20174;-70
2021/07/12 01:24:11;;;;;;;13.57;12.27;;;20.60;99.90;;;;;;4941019;28;20449;-70
2021/07/12 01:27:11;;;;;;;13.90;12.40;;;20.50;99.90;;;;;;4978332;28;20918;-70
2021/07/12 01:29:55;;;;;;;18.07;16.27;;;20.50;99.90;;;;;;4978071;28;20458;-70
2021/07/12 01:32:59;;;;;;;15.53;12.20;;;20.50;99.90;;;;;;4978386;28;20741;-70
2021/07/12 01:35:56;;;;;;;14.77;13.37;;;20.30;99.90;;;;;;4978142;28;20430;-70
2021/07/12 01:38:49;;;;;;;15.00;13.50;;;20.20;99.90;;;;;;4977818;28;20447;-70
2021/07/12 01:41:43;;;;;;;14.13;12.73;;;20.30;99.90;;;;;;4978162;28;20844;-70
2021/07/12 01:44:20;;;;;;;16.53;13.57;;;20.20;99.90;;;;;;4961117;28;20840;-70
2021/07/12 01:47:05;;;;;;;15.50;14.00;;;20.30;99.90;;;;;;4978043;28;20422;-70
2021/07/12 01:49:46;;;;;;;13.43;12.23;;;20.20;99.90;;;;;;4978171;28;20788;-71
2021/07/12 01:52:18;;;;;;;13.87;12.57;;;20.20;99.90;;;;;;4978020;28;20419;-70
2021/07/12 01:54:44;;;;;;;18.50;12.60;;;20.20;99.90;;;;;;4977836;28;20790;-70
2021/07/12 01:57:20;;;;;;;13.37;12.13;;;20.20;99.90;;;;;;4977759;28;20497;-70
2021/07/12 01:59:52;;;;;;;13.63;12.33;;;20.20;99.90;;;;;;4977730;28;20231;-70
2021/07/12 02:02:21;;;;;;;14.63;13.17;;;20.10;99.90;;;;;;4978058;28;20443;-70
2021/07/12 02:04:48;;;;;;;12.60;11.40;;;20.10;99.90;;;;;;4977924;28;20457;-70
2021/07/12 02:07:16;;;;;;;14.60;13.20;;;20.20;99.90;;;;;;4977746;28;20911;-70
2021/07/12 02:09:42;;;;;;;12.90;11.73;;;20.10;99.90;;;;;;4977528;28;20431;-70
2021/07/12 02:12:09;;;;;;;15.27;13.67;;;20.20;99.90;;;;;;4960121;28;20434;-70
2021/07/12 02:14:37;;;;;;;14.07;12.77;;;20.10;99.90;;;;;;4976889;28;20478;-70
2021/07/12 02:17:05;;;;;;;14.50;13.10;;;20.10;99.90;;;;;;4977410;28;20419;-70
2021/07/12 02:19:32;;;;;;;14.73;12.87;;;20.00;99.90;;;;;;4977559;28;20426;-70
2021/07/12 02:22:00;;;;;;;15.80;13.83;;;19.90;99.90;;;;;;4977863;28;20479;-70
2021/07/12 02:24:28;;;;;;;15.03;13.63;;;19.70;99.90;;;;;;4977607;28;20903;-70
2021/07/12 02:26:55;;;;;;;14.70;13.27;;;19.60;99.90;;;;;;4977538;28;20431;-70
2021/07/12 02:29:21;;;;;;;16.00;14.37;;;19.60;99.90;;;;;;4977315;28;20419;-70
2021/07/12 02:31:51;;;;;;;16.60;13.90;;;19.60;99.90;;;;;;4977475;28;20438;-70
2021/07/12 02:34:18;;;;;;;16.83;13.30;;;19.60;99.90;;;;;;4977496;28;20955;-70
2021/07/12 02:36:46;;;;;;;15.00;13.07;;;19.60;99.90;;;;;;4977268;28;20439;-70
2021/07/12 02:39:13;;;;;;;14.77;13.20;;;19.70;99.90;;;;;;4977227;28;20818;-70
2021/07/12 02:41:40;;;;;;;14.27;12.77;;;19.60;99.90;;;;;;4977411;28;20462;-70
2021/07/12 02:44:09;;;;;;;15.40;13.93;;;19.60;99.90;;;;;;4977081;28;20509;-70
2021/07/12 02:46:34;;;;;;;15.10;13.30;;;19.50;99.90;;;;;;4977005;28;20822;-70
2021/07/12 02:49:01;;;;;;;13.73;12.43;;;19.50;99.90;;;;;;4976882;28;20486;-70
2021/07/12 02:51:44;;;;;;;14.80;13.40;;;19.60;99.90;;;;;;4959811;28;20187;-70
2021/07/12 02:54:12;;;;;;;15.20;13.67;;;19.80;99.90;;;;;;4976945;28;20466;-70
2021/07/12 02:56:38;;;;;;;12.73;11.53;;;19.70;99.90;;;;;;4976645;28;20427;-70
2021/07/12 02:59:03;;;;;;;13.77;12.20;;;19.60;99.90;;;;;;4976677;28;20423;-70
2021/07/12 03:01:30;;;;;;;14.53;12.70;;;19.60;99.90;;;;;;4976609;28;20195;-70
2021/07/12 03:03:55;;;;;;;14.10;12.70;;;19.70;99.90;;;;;;4977041;28;20214;-70
2021/07/12 03:06:28;;;;;;;15.20;13.60;;;19.70;99.90;;;;;;4976666;28;20920;-70
2021/07/12 03:08:57;;;;;;;14.40;12.70;;;19.60;99.90;;;;;;4976374;28;20187;-70
2021/07/12 03:11:31;;;;;;;16.17;12.97;;;19.70;99.90;;;;;;4976645;28;20446;-70
2021/07/12 03:14:20;;;;;;;14.63;13.20;;;19.70;99.90;;;;;;4976665;28;20474;-70
2021/07/12 03:16:48;;;;;;;16.10;13.50;;;19.60;99.90;;;;;;4976685;28;20431;-70
2021/07/12 03:19:21;;;;;;;14.37;12.93;;;19.60;99.90;;;;;;4976346;28;20457;-70
2021/07/12 03:21:48;;;;;;;14.63;13.33;;;19.50;99.90;;;;;;4976625;28;20423;-70
2021/07/12 03:24:16;;;;;;;16.00;14.40;;;19.60;99.90;;;;;;4975572;28;20874;-70
2021/07/12 03:26:45;;;;;;;16.30;14.70;;;19.60;99.90;;;;;;4976414;28;20431;-70
2021/07/12 03:29:13;;;;;;;14.93;13.10;;;19.70;99.90;;;;;;4976217;28;20622;-70
2021/07/12 03:31:40;;;;;;;14.47;13.03;;;19.60;99.90;;;;;;4976166;28;20764;-70
2021/07/12 03:34:08;;;;;;;15.60;13.80;;;19.60;99.90;;;;;;4958823;28;21045;-70
2021/07/12 03:36:34;;;;;;;15.90;13.40;;;19.60;99.90;;;;;;4975899;28;20935;-70
2021/07/12 03:39:01;;;;;;;14.40;12.90;;;19.60;99.90;;;;;;4975912;28;20427;-70
2021/07/12 03:41:26;;;;;;;14.20;12.77;;;19.70;99.90;;;;;;4976011;28;20438;-70
2021/07/12 03:43:52;;;;;;;15.00;13.53;;;19.60;99.90;;;;;;4976017;28;20800;-70
2021/07/12 03:46:18;;;;;;;14.13;12.63;;;19.80;99.90;;;;;;4975790;28;20191;-70
2021/07/12 03:48:45;;;;;;;14.83;13.13;;;19.70;99.90;;;;;;4975641;28;20680;-71
2021/07/12 03:51:14;;;;;;;14.83;12.70;;;19.80;99.90;;;;;;4975793;28;20280;-70
2021/07/12 03:53:40;;;;;;;14.43;13.00;;;19.80;99.90;;;;;;4975797;28;20485;-70
2021/07/12 03:56:06;;;;;;;17.07;13.70;;;20.00;99.90;;;;;;4975928;28;20427;-70
2021/07/12 03:58:32;;;;;;;12.73;11.63;;;20.00;99.90;;;;;;4958527;28;20245;-70
2021/07/12 04:00:57;;;;;;;14.03;12.73;;;20.00;99.90;;;;;;4975097;28;20427;-70
2021/07/12 04:03:23;;;;;;;13.27;12.03;;;20.20;99.90;;;;;;4975614;28;20203;-70
2021/07/12 04:05:48;;;;;;;13.50;12.00;;;20.70;99.90;;;;;;4975959;28;20179;-70
2021/07/12 04:08:14;;;;;;;14.70;11.30;;;22.00;99.90;;;;;;4975640;28;20270;-71
2021/07/12 04:10:40;;;;;;;14.03;10.10;;;23.20;1.00;;;;;;4976610;28;20605;-71
2021/07/12 04:13:05;;;;;;;13.23;10.30;;;24.30;1.00;;;;;;4976306;28;20211;-70
2021/07/12 04:15:31;;;;;;;10.63;9.57;;;25.10;1.00;;;;;;4976811;28;20268;-70
2021/07/12 04:17:57;;;;;;;10.43;9.47;;;25.90;1.00;;;;;;4976006;28;20263;-70
2021/07/12 04:20:23;;;;;;;10.20;9.20;;;25.60;99.90;;;;;;4975854;28;20183;-70
2021/07/12 04:22:49;;;;;;;9.40;8.60;;;26.10;1.00;;;;;;4976451;28;20426;-70
2021/07/12 04:25:15;;;;;;;11.93;8.83;;;26.20;99.90;;;;;;4975565;28;20612;-71
2021/07/12 04:27:41;;;;;;;9.90;8.10;;;26.70;99.00;;;;;;4975555;28;20438;-71
2021/07/12 04:30:09;;;;;;;9.50;8.37;;;27.00;1.00;;;;;;4975846;28;20183;-70
2021/07/12 04:32:35;;;;;;;8.80;8.10;;;27.40;1.00;;;;;;4975915;28;20430;-70
2021/07/12 04:35:01;;;;;;;9.00;8.20;;;27.90;99.90;;;;;;4976350;28;20892;-70
2021/07/12 04:37:26;;;;;;;9.20;8.13;;;28.30;99.90;;;;;;4976951;28;20438;-70
2021/07/12 04:39:52;;;;;;;8.90;8.10;;;28.90;99.90;;;;;;4978147;28;20511;-71
2021/07/12 04:42:18;;;;;;;9.63;8.83;;;29.20;28.10;;;;;;4976874;28;20195;-71
2021/07/12 04:44:43;;;;;;;9.40;8.50;;;29.70;1.00;;;;;;4977207;28;20183;-71
2021/07/12 04:47:09;;;;;;;8.67;7.97;;;29.40;1.00;;;;;;4977102;28;20180;-71
2021/07/12 04:49:34;;;;;;;9.03;8.13;;;28.90;30.20;;;;;;4977318;28;20628;-70
2021/07/12 04:52:01;;;;;;;10.17;8.60;;;28.90;1.00;;;;;;4960509;28;20332;-71
2021/07/12 04:54:27;;;;;;;8.67;7.87;;;28.30;99.90;;;;;;4976583;28;20204;-71
2021/07/12 04:56:52;;;;;;;9.00;8.30;;;28.20;93.20;;;;;;4976193;28;20419;-70
2021/07/12 04:59:24;;;;;;;8.40;7.47;;;28.20;99.90;;;;;;4976365;28;20183;-71
2021/07/12 05:01:50;;;;;;;8.73;8.03;;;28.40;99.90;;;;;;4976424;28;20624;-70
2021/07/12 05:04:15;;;;;;;10.93;8.20;;;27.60;99.90;;;;;;4976287;28;20537;-70
2021/07/12 05:06:41;;;;;;;7.87;7.27;;;27.80;99.90;;;;;;4976451;28;20184;-70
2021/07/12 05:09:07;;;;;;;9.00;8.20;;;28.80;5.70;;;;;;4976713;28;20183;-69
2021/07/12 05:11:33;;;;;;;7.97;6.70;;;28.70;10.20;;;;;;4976674;28;20195;-69
2021/07/12 05:14:00;;;;;;;8.90;7.37;;;28.70;20.10;;;;;;4977137;28;20596;-70
2021/07/12 05:16:25;;;;;;;8.60;7.80;;;29.00;1.00;;;;;;4976782;28;20896;-69
2021/07/12 05:18:51;;;;;;;9.83;8.63;;;28.40;1.00;;;;;;4977130;28;20431;-69
2021/07/12 05:21:17;;;;;;;7.83;7.03;;;28.90;1.00;;;;;;4976827;28;20573;-70
2021/07/12 05:23:43;;;;;;;9.67;8.67;;;28.00;33.70;;;;;;4976475;28;20486;-70
2021/07/12 05:26:08;;;;;;;9.00;8.30;;;27.20;99.90;;;;;;4976343;28;20183;-69
2021/07/12 05:28:36;;;;;;;9.30;8.50;;;26.90;99.90;;;;;;4976350;28;20608;-69
2021/07/12 05:31:01;;;;;;;8.87;8.07;;;26.90;1.00;;;;;;4976552;28;20195;-69
2021/07/12 05:33:27;;;;;;;8.83;7.90;;;27.60;99.90;;;;;;4976947;28;20471;-69
2021/07/12 05:35:52;;;;;;;8.17;7.37;;;28.50;94.80;;;;;;4976690;28;20198;-72
2021/07/12 05:38:18;;;;;;;8.33;7.53;;;29.00;1.00;;;;;;4976684;28;20191;-69
2021/07/12 05:40:43;;;;;;;9.70;7.90;;;29.40;1.00;;;;;;4959483;28;20188;-70
2021/07/12 05:43:09;;;;;;;9.00;7.83;;;28.40;8.30;;;;;;4976571;28;20184;-69
2021/07/12 05:45:35;;;;;;;8.97;8.17;;;28.30;99.90;;;;;;4976814;28;20227;-70
2021/07/12 05:48:01;;;;;;;8.50;7.70;;;28.20;21.80;;;;;;4979849;28;20192;-69
2021/07/12 05:50:27;;;;;;;9.60;8.13;;;27.80;99.90;;;;;;4980642;28;20446;-70
2021/07/12 05:52:52;;;;;;;9.83;8.87;;;28.50;50.10;;;;;;4979620;28;20705;-69
2021/07/12 05:55:18;;;;;;;8.10;7.50;;;28.90;1.00;;;;;;4980484;28;20242;-70
2021/07/12 05:57:43;;;;;;;8.50;7.70;;;29.20;1.00;;;;;;4980119;28;20192;-70
2021/07/12 06:00:11;;;;;;;8.67;7.97;;;30.20;1.00;;;;;;4979995;28;20194;-69
2021/07/12 06:02:36;;;;;;;8.57;7.60;;;29.60;1.00;;;;;;4979407;28;20179;-70
2021/07/12 06:05:03;;;;;;;8.90;8.20;;;30.50;1.00;;;;;;4979748;28;20762;-71
2021/07/12 06:07:29;;;;;;;10.27;9.20;;;29.60;1.00;;;;;;4979287;28;20190;-70
2021/07/12 06:09:54;;;;;;;9.90;9.00;;;29.10;1.00;;;;;;4979500;28;20435;-70
2021/07/12 06:12:21;;;;;;;9.67;8.77;;;28.40;94.90;;;;;;4978961;28;20428;-70
2021/07/12 06:14:46;;;;;;;9.00;8.20;;;28.90;71.30;;;;;;4979672;28;20242;-71
2021/07/12 06:17:12;;;;;;;9.93;8.93;;;28.80;1.00;;;;;;4978602;28;20502;-70
2021/07/12 06:19:37;;;;;;;10.30;9.33;;;27.80;99.90;;;;;;4977446;28;20195;-66
2021/07/12 06:22:04;;;;;;;10.10;9.13;;;27.90;99.90;;;;;;4969336;28;20199;-66
2021/07/12 06:24:30;;;;;;;9.23;8.47;;;29.00;1.00;;;;;;4963128;28;20192;-66
2021/07/12 06:26:56;;;;;;;10.50;9.60;;;29.30;1.00;;;;;;4974536;28;20482;-66
2021/07/12 06:29:21;;;;;;;9.10;8.20;;;29.40;1.00;;;;;;4964940;28;20968;-66
2021/07/12 06:31:48;;;;;;;9.60;8.70;;;30.20;1.00;;;;;;4952081;28;20219;-66
2021/07/12 06:34:14;;;;;;;9.60;8.80;;;30.60;1.00;;;;;;4957421;28;20220;-66
2021/07/12 06:36:40;;;;;;;8.47;7.77;;;31.60;1.00;;;;;;4951170;28;20458;-66
2021/07/12 06:39:06;;;;;;;9.50;8.60;;;31.00;1.00;;;;;;4942721;29;20685;-66
2021/07/12 06:41:32;;;;;;;10.60;9.60;;;29.50;1.00;;;;;;4957598;29;20215;-66
2021/07/12 06:43:58;;;;;;;9.97;9.07;;;29.20;1.00;;;;;;4957555;29;20519;-66
2021/07/12 06:46:23;;;;;;;9.50;8.80;;;29.00;1.00;;;;;;4958395;28;20462;-70
2021/07/12 06:48:49;;;;;;;10.73;9.70;;;28.10;99.90;;;;;;4960914;28;20443;-70
2021/07/12 06:51:15;;;;;;;10.30;9.40;;;29.00;1.00;;;;;;4957941;28;20201;-70
2021/07/12 06:53:40;;;;;;;10.60;9.63;;;29.10;1.00;;;;;;4951288;29;20223;-70
2021/07/12 06:56:06;;;;;;;9.83;8.97;;;28.50;59.50;;;;;;4963625;28;20232;-70
2021/07/12 06:58:32;;;;;;;10.33;9.33;;;28.20;99.90;;;;;;4942473;28;20260;-70
2021/07/12 07:00:58;;;;;;;10.47;9.57;;;27.70;99.90;;;;;;4938277;29;20436;-70
2021/07/12 07:03:23;;;;;;;10.13;9.23;;;28.40;99.90;;;;;;4952917;28;20672;-71
2021/07/12 07:05:49;;;;;;;9.77;9.00;;;28.70;99.90;;;;;;4976934;28;20190;-71
2021/07/12 07:08:14;;;;;;;10.77;9.83;;;30.10;1.00;;;;;;4976511;28;20620;-70
2021/07/12 07:10:40;;;;;;;11.13;10.23;;;30.40;1.00;;;;;;4959348;28;20187;-70
2021/07/12 07:13:06;;;;;;;9.90;9.00;;;29.50;1.00;;;;;;4974785;28;20199;-71
2021/07/12 07:15:31;;;;;;;10.60;9.60;;;29.90;1.00;;;;;;4956961;29;20191;-70
2021/07/12 07:17:59;;;;;;;10.77;9.87;;;30.70;1.00;;;;;;4954638;29;20177;-70
2021/07/12 07:20:25;;;;;;;11.57;9.83;;;30.20;1.00;;;;;;4954831;29;20164;-70
2021/07/12 07:22:50;;;;;;;12.40;9.70;;;29.80;1.00;;;;;;4956042;29;20472;-70
2021/07/12 07:25:16;;;;;;;11.13;10.23;;;30.40;1.00;;;;;;4955911;29;20487;-70
2021/07/12 07:27:42;;;;;;;10.60;9.60;;;29.80;1.00;;;;;;4955685;28;20485;-70
2021/07/12 07:30:08;;;;;;;10.50;9.60;;;29.90;1.00;;;;;;4955677;29;20184;-70
2021/07/12 07:32:34;;;;;;;10.80;9.90;;;30.40;1.00;;;;;;4956273;29;20180;-70
2021/07/12 07:35:00;;;;;;;10.70;9.80;;;30.10;1.00;;;;;;4956737;29;20436;-70
2021/07/12 07:37:25;;;;;;;10.43;9.63;;;30.70;1.00;;;;;;4939455;29;20446;-70
2021/07/12 07:39:51;;;;;;;10.87;9.87;;;30.40;1.00;;;;;;4939429;29;20192;-70
2021/07/12 07:42:17;;;;;;;9.93;9.13;;;29.10;62.60;;;;;;4956638;29;20463;-70
2021/07/12 07:44:42;;;;;;;9.70;8.80;;;28.80;99.90;;;;;;4956033;29;20196;-70
2021/07/12 07:47:10;;;;;;;11.00;10.20;;;28.80;99.90;;;;;;4956636;29;20188;-70
2021/07/12 07:49:36;;;;;;;10.40;9.00;;;28.30;1.00;;;;;;4956037;29;20646;-70
2021/07/12 07:52:01;;;;;;;11.10;10.10;;;27.50;19.30;;;;;;4956371;29;20494;-70
2021/07/12 07:54:27;;;;;;;11.40;10.40;;;27.40;1.00;;;;;;4956223;29;20483;-70
2021/07/12 07:56:52;;;;;;;10.63;9.60;;;27.60;1.00;;;;;;4956481;29;20551;-70
2021/07/12 07:59:18;;;;;;;12.33;11.00;;;28.90;1.00;;;;;;4955918;29;20191;-70
2021/07/12 08:01:44;;;;;;;11.17;10.27;;;29.00;99.90;;;;;;4956051;29;20189;-70
2021/07/12 08:04:09;;;;;;;11.23;10.23;;;28.80;99.90;;;;;;4955994;29;20199;-70
2021/07/12 08:06:35;;;;;;;9.70;8.90;;;28.50;99.90;;;;;;4955964;29;20180;-70
2021/07/12 08:09:00;;;;;;;10.33;9.53;;;27.90;1.00;;;;;;4955692;28;20283;-70
2021/07/12 08:11:26;;;;;;;11.33;10.47;;;26.60;1.00;;;;;;4956161;29;20188;-70
2021/07/12 08:13:52;;;;;;;13.27;10.33;;;26.10;99.90;;;;;;4955805;29;20227;-70
2021/07/12 08:16:18;;;;;;;10.90;10.00;;;25.90;93.10;;;;;;4955757;29;20188;-70
2021/07/12 08:18:44;;;;;;;11.70;10.70;;;25.80;99.90;;;;;;4955689;29;20442;-70
2021/07/12 08:21:11;;;;;;;11.57;10.43;;;25.80;82.70;;;;;;4938930;29;20631;-70
2021/07/12 08:23:39;;;;;;;11.63;10.63;;;25.70;83.70;;;;;;4955972;29;20282;-70
2021/07/12 08:26:05;;;;;;;10.37;9.37;;;25.50;1.00;;;;;;4956046;29;20523;-70
2021/07/12 08:28:30;;;;;;;14.47;11.00;;;25.80;99.90;;;;;;4955443;29;20518;-70
2021/07/12 08:30:56;;;;;;;10.50;9.70;;;25.90;1.00;;;;;;4955631;29;20188;-70
2021/07/12 08:33:22;;;;;;;10.57;9.60;;;25.60;99.90;;;;;;4938631;29;20649;-70
2021/07/12 08:35:47;;;;;;;10.83;9.93;;;25.80;1.00;;;;;;4955683;29;20180;-70
2021/07/12 08:38:13;;;;;;;10.53;9.63;;;26.20;1.00;;;;;;4955475;29;20530;-70
2021/07/12 08:40:39;;;;;;;10.60;9.60;;;26.30;1.00;;;;;;4955678;29;20188;-66
2021/07/12 08:43:05;;;;;;;9.73;8.83;;;26.50;99.90;;;;;;4955218;29;20753;-66
2021/07/12 08:45:30;;;;;;;10.13;9.33;;;26.40;1.00;;;;;;4955685;29;20685;-65
2021/07/12 08:47:57;;;;;;;10.97;10.17;;;26.30;99.90;;;;;;4955454;29;20263;-66
2021/07/12 08:50:27;;;;;;;10.27;9.37;;;26.20;1.00;;;;;;4955321;29;20238;-66
2021/07/12 08:52:54;;;;;;;10.47;9.47;;;26.20;1.00;;;;;;4955317;29;20451;-66
2021/07/12 08:55:21;;;;;;;10.10;9.27;;;26.00;99.90;;;;;;4955339;29;20451;-66
2021/07/12 08:58:06;;;;;;;9.30;8.60;;;26.60;1.00;;;;;;4955152;29;20763;-65
2021/07/12 09:00:53;;;;;;;10.30;9.13;;;26.90;99.90;;;;;;4955517;29;20522;-66
2021/07/12 09:03:26;;;;;;;9.17;8.47;;;27.10;99.90;;;;;;4955405;29;20550;-66
2021/07/12 09:05:59;;;;;;;9.20;8.50;;;27.60;99.90;;;;;;4955401;29;20443;-66
2021/07/12 09:08:53;;;;;;;8.70;8.00;;;28.00;1.00;;;;;;4955188;28;20431;-66
2021/07/12 09:11:36;;;;;;;9.47;8.70;;;27.90;1.00;;;;;;4955239;29;20900;-66
2021/07/12 09:14:10;;;;;;;9.03;8.17;;;27.50;1.00;;;;;;4955224;29;20749;-66
2021/07/12 09:16:40;;;;;;;9.80;9.00;;;27.60;1.00;;;;;;4955255;29;20447;-66
2021/07/12 09:19:26;;;;;;;9.80;9.00;;;27.50;1.00;;;;;;4955172;29;20428;-66
2021/07/12 09:21:56;;;;;;;9.57;8.77;;;27.80;1.00;;;;;;4956586;28;20435;-65
2021/07/12 09:24:31;;;;;;;9.40;8.70;;;27.80;99.90;;;;;;4958877;29;20443;-66
2021/07/12 09:27:14;;;;;;;9.00;8.30;;;27.80;1.00;;;;;;4959093;29;20421;-66
2021/07/12 09:29:44;;;;;;;13.90;12.70;;;27.40;1.00;;;;;;4958837;29;20442;-66
2021/07/12 09:32:12;;;;;;;9.50;8.57;;;27.40;1.00;;;;;;4958949;29;20514;-66
2021/07/12 09:34:38;;;;;;;9.30;8.37;;;27.30;53.20;;;;;;4958744;29;20550;-66
2021/07/12 09:37:06;;;;;;;9.33;8.57;;;27.40;1.00;;;;;;4958559;29;20462;-66
2021/07/12 09:39:38;;;;;;;8.77;8.17;;;27.20;1.00;;;;;;4958405;29;20869;-65
2021/07/12 09:42:16;;;;;;;9.57;8.77;;;27.80;1.00;;;;;;4958611;29;20491;-65
2021/07/12 09:44:51;;;;;;;8.70;8.00;;;27.90;99.90;;;;;;4958750;29;20467;-65
2021/07/12 09:47:19;;;;;;;10.23;9.37;;;27.80;99.90;;;;;;4958402;29;20438;-66
2021/07/12 09:49:46;;;;;;;9.30;8.50;;;28.00;99.90;;;;;;4958321;29;20896;-66
2021/07/12 09:52:14;;;;;;;8.53;7.67;;;28.20;1.00;;;;;;4958603;29;20431;-65
2021/07/12 09:54:42;;;;;;;9.33;8.50;;;28.50;99.90;;;;;;4958411;29;20566;-70
2021/07/12 09:57:12;;;;;;;11.40;10.20;;;28.20;99.90;;;;;;4958310;29;20515;-69
2021/07/12 10:00:06;;;;;;;10.20;9.40;;;27.80;99.90;;;;;;4958627;29;20424;-70
2021/07/12 10:02:42;;;;;;;9.93;9.13;;;28.00;99.90;;;;;;4960959;28;20493;-69
2021/07/12 10:05:13;;;;;;;9.80;9.10;;;28.30;99.90;;;;;;4977337;28;20438;-69
2021/07/12 10:07:39;;;;;;;10.10;9.10;;;28.20;99.90;;;;;;4977193;28;20434;-70
2021/07/12 10:10:16;;;;;;;9.97;9.17;;;27.70;99.90;;;;;;4957508;28;20479;-70
2021/07/12 10:12:43;;;;;;;9.77;9.00;;;27.60;1.00;;;;;;4922032;29;20984;-70
2021/07/12 10:15:11;;;;;;;10.83;9.93;;;27.60;1.00;;;;;;4938808;29;20440;-70
2021/07/12 10:17:39;;;;;;;10.80;10.00;;;27.90;1.00;;;;;;4938633;29;20441;-71
2021/07/12 10:20:05;;;;;;;11.20;9.17;;;27.90;1.00;;;;;;4951692;28;20451;-70
2021/07/12 10:22:36;;;;;;;10.70;9.90;;;28.10;1.00;;;;;;4958074;29;20431;-70
2021/07/12 10:25:11;;;;;;;10.07;9.27;;;28.00;1.00;;;;;;4957769;29;20460;-70
2021/07/12 10:28:04;;;;;;;9.70;9.00;;;27.90;6.20;;;;;;4944486;29;20507;-70
2021/07/12 10:30:52;;;;;;;9.50;8.70;;;27.90;99.90;;;;;;4936788;29;20448;-69
2021/07/12 10:33:29;;;;;;;9.43;8.73;;;27.30;25.80;;;;;;4937759;29;20484;-70
2021/07/12 10:35:55;;;;;;;9.00;8.20;;;27.50;1.00;;;;;;4945242;28;20612;-70
2021/07/12 10:38:38;;;;;;;11.20;10.10;;;27.70;1.00;;;;;;4976693;28;20506;-70
2021/07/12 10:41:26;;;;;;;9.87;9.07;;;28.00;1.00;;;;;;4977162;28;20184;-70
2021/07/12 10:44:00;;;;;;;9.50;8.80;;;28.00;1.00;;;;;;4962955;28;20440;-70
2021/07/12 10:46:32;;;;;;;10.30;9.50;;;27.90;1.00;;;;;;4938552;29;20436;-70
2021/07/12 10:49:25;;;;;;;8.70;8.10;;;28.10;1.00;;;;;;4938421;29;20425;-68
2021/07/12 10:51:50;;;;;;;9.63;8.83;;;28.30;99.90;;;;;;4938268;29;20441;-69
2021/07/12 10:54:16;;;;;;;8.20;7.60;;;28.10;99.90;;;;;;4921722;29;20476;-69
2021/07/12 10:57:00;;;;;;;9.10;7.90;;;28.50;99.90;;;;;;4938405;29;20181;-69
2021/07/12 10:59:39;;;;;;;9.77;8.97;;;28.60;99.90;;;;;;4938294;29;20177;-69
2021/07/12 11:02:19;;;;;;;8.80;7.97;;;28.10;99.90;;;;;;4938839;29;20424;-68
2021/07/12 11:05:04;;;;;;;8.67;7.77;;;28.10;99.90;;;;;;4938586;29;20781;-69
2021/07/12 11:07:49;;;;;;;9.33;8.63;;;28.50;99.90;;;;;;4921472;29;20516;-68
2021/07/12 11:10:20;;;;;;;8.50;7.80;;;28.40;99.90;;;;;;4942872;28;20448;-69
2021/07/12 11:13:03;;;;;;;9.00;8.30;;;27.80;99.90;;;;;;4957106;29;20531;-69
2021/07/12 11:15:36;;;;;;;8.23;7.57;;;27.70;99.90;;;;;;4970660;28;20883;-69
2021/07/12 11:18:09;;;;;;;9.07;8.37;;;27.50;99.90;;;;;;4962659;28;20507;-64
2021/07/12 11:20:43;;;;;;;8.43;7.53;;;27.60;1.00;;;;;;4975781;28;20517;-65
2021/07/12 11:23:28;;;;;;;7.20;6.70;;;28.00;99.90;;;;;;4976140;28;20442;-64
2021/07/12 11:25:53;;;;;;;7.77;7.27;;;28.30;70.00;;;;;;4976018;28;20470;-66
2021/07/12 11:28:19;;;;;;;8.30;7.70;;;28.70;1.00;;;;;;4975693;28;20467;-65
2021/07/12 11:30:45;;;;;;;6.73;6.13;;;28.50;1.00;;;;;;4975801;28;20266;-65
2021/07/12 11:33:28;;;;;;;6.40;5.90;;;28.60;1.00;;;;;;4976231;28;20211;-65
2021/07/12 11:35:54;;;;;;;7.20;6.70;;;28.70;1.00;;;;;;4975827;28;20179;-65
2021/07/12 11:38:20;;;;;;;7.00;6.50;;;29.00;1.00;;;;;;4975628;28;20438;-65
2021/07/12 11:40:49;;;;;;;7.07;6.57;;;28.70;1.00;;;;;;4975634;28;20427;-65
2021/07/12 11:43:26;;;;;;;8.57;7.97;;;28.90;1.00;;;;;;4975852;28;20193;-65
2021/07/12 11:45:59;;;;;;;9.23;7.23;;;29.10;1.00;;;;;;4975273;28;20439;-66
2021/07/12 11:48:24;;;;;;;7.80;7.30;;;28.90;2.90;;;;;;4958239;28;20497;-66
2021/07/12 11:50:51;;;;;;;7.03;6.53;;;28.60;1.00;;;;;;4975730;28;20435;-65
2021/07/12 11:53:17;;;;;;;6.73;6.33;;;28.40;13.80;;;;;;4975461;28;20211;-65
2021/07/12 11:55:43;;;;;;;7.97;7.27;;;28.50;13.50;;;;;;4975579;28;20798;-68
2021/07/12 11:58:08;;;;;;;8.03;7.43;;;28.70;1.00;;;;;;4974991;28;20184;-69
2021/07/12 12:00:43;;;;;;;7.07;6.47;;;28.70;1.00;;;;;;4969529;28;20605;-69
2021/07/12 12:03:13;;;;;;;7.27;6.77;;;28.90;1.00;;;;;;4966526;28;20188;-68
2021/07/12 12:05:41;;;;;;;8.10;7.50;;;28.70;1.00;;;;;;4962424;28;20785;-68
2021/07/12 12:08:08;;;;;;;7.73;7.13;;;28.90;1.00;;;;;;4966799;28;20443;-69
2021/07/12 12:10:39;;;;;;;7.60;7.10;;;29.20;1.00;;;;;;4963594;28;20435;-69
2021/07/12 12:13:13;;;;;;;6.47;6.07;;;29.50;1.00;;;;;;4965070;28;20439;-69
2021/07/12 12:15:41;;;;;;;6.30;5.90;;;29.30;1.00;;;;;;4945084;28;20448;-68
2021/07/12 12:18:12;;;;;;;6.37;5.93;;;29.10;1.00;;;;;;4963909;28;20446;-69
2021/07/12 12:20:48;;;;;;;6.50;6.00;;;29.40;1.00;;;;;;4961404;28;20443;-69
2021/07/12 12:23:19;;;;;;;5.90;5.50;;;29.30;1.00;;;;;;4963954;28;20435;-69
2021/07/12 12:26:07;;;;;;;6.20;5.80;;;29.20;1.00;;;;;;4964127;28;20503;-69
2021/07/12 12:28:36;;;;;;;6.10;5.60;;;29.10;1.00;;;;;;4964559;28;20937;-69
2021/07/12 12:31:08;;;;;;;5.83;5.43;;;29.30;1.00;;;;;;4964538;28;20450;-68
2021/07/12 12:33:42;;;;;;;6.10;5.70;;;29.30;1.00;;;;;;4963928;28;20463;-69
2021/07/12 12:36:21;;;;;;;6.57;6.13;;;29.30;1.00;;;;;;4947831;28;20498;-70
2021/07/12 12:39:02;;;;;;;6.83;6.30;;;29.60;1.00;;;;;;4948056;28;20466;-69
2021/07/12 12:41:36;;;;;;;6.47;6.07;;;30.10;1.00;;;;;;4938375;28;20444;-70
2021/07/12 12:44:05;;;;;;;5.73;5.23;;;30.60;1.00;;;;;;4953161;29;20445;-70
2021/07/12 12:46:35;;;;;;;5.73;5.20;;;30.60;1.00;;;;;;4955489;29;20431;-70
2021/07/12 12:49:16;;;;;;;5.90;5.40;;;30.70;1.00;;;;;;4953672;29;20484;-70
2021/07/12 12:51:54;;;;;;;6.17;5.77;;;31.10;1.00;;;;;;4956119;29;20443;-69
2021/07/12 12:54:21;;;;;;;6.30;5.90;;;30.80;1.00;;;;;;4955662;29;20482;-69